Pagrindinis puslapis
METAR-TAF:

METAR-TAF

Oro uostai :

Kokola, Suomija

platuma: 63-43N, ilguma: 023-09E, Aukštis: 25 m

Dabartinis oras

Ataskaita buvo paskelbta 19 minutes, ne 02:50 UTC
Vėjas 1 kt nuo kintamojo kryptimis
Temperatūra 11°C
Drėgmė 94%
Slėgis 1014 hPa
Matomumas 10 km arba daugiau
nėra debesų žemiau 1500 m ir nėra kamuolinių lietaus debesų

METAR: EFKK 250250Z AUTO VRB01KT CAVOK 11/10 Q1014

Laikas: 06:09 (03:09 UTC)

Prognozė

Ataskaita buvo paskelbta 39 minutes, ne 02:30 UTC
Prognozė galioja nuo 25 metu 03 UTC su 25 metu 12 UTC
Vėjas 3 kt iš Rytų
Matomumas 10 km arba daugiau
Mažai debesys ne aukštis 4500 ft

TAF: EFKK 250230Z 2503/2512 09003KT 9999 FEW045

Orai ataskaitas ir orų prognozės (METAR, TAF).

turimą stotys yra geltonos ir raudonos taškus žemėlapyje.

Perkelti pele per norėdami pamatyti stoties vardą.

Tada spustelėkite, norėdami matyti oro stebėjimo ir prognozės.

Norėdami pakeisti žemėlapį: spustelėkite ant žalios mygtukų su juodo kryžiaus žemyn,; žalią mygtuką su brūkšneliu, jei norite nutolinti; arba žalių rodyklių gretimoms žemėlapius.


METAR-TAF: